sensor_id;sensor_type;location;lat;lon;timestamp;pressure;altitude;pressure_sealevel;temperature;humidity
56912;BME280;42800;53.928;27.662;2024-01-15T00:01:31;96980.97;;;0.75;100.00
56912;BME280;42800;53.928;27.662;2024-01-15T00:03:57;96986.66;;;0.89;100.00
56912;BME280;42800;53.928;27.662;2024-01-15T00:06:23;96972.22;;;0.62;100.00
56912;BME280;42800;53.928;27.662;2024-01-15T00:08:49;96970.38;;;0.86;100.00
56912;BME280;42800;53.928;27.662;2024-01-15T00:11:15;96978.91;;;0.88;100.00
56912;BME280;42800;53.928;27.662;2024-01-15T00:13:41;96977.66;;;1.01;100.00
56912;BME280;42800;53.928;27.662;2024-01-15T00:16:06;96984.59;;;1.02;100.00
56912;BME280;42800;53.928;27.662;2024-01-15T00:18:33;96974.44;;;0.96;100.00
56912;BME280;42800;53.928;27.662;2024-01-15T00:20:59;96973.44;;;0.65;100.00
56912;BME280;42800;53.928;27.662;2024-01-15T00:23:25;96972.44;;;0.73;100.00
56912;BME280;42800;53.928;27.662;2024-01-15T00:25:51;96965.19;;;0.97;100.00
56912;BME280;42800;53.928;27.662;2024-01-15T00:28:17;96979.97;;;1.03;100.00
56912;BME280;42800;53.928;27.662;2024-01-15T00:30:43;96979.41;;;0.74;100.00
56912;BME280;42800;53.928;27.662;2024-01-15T00:33:09;96980.25;;;0.78;100.00
56912;BME280;42800;53.928;27.662;2024-01-15T00:35:38;96977.69;;;0.85;100.00
56912;BME280;42800;53.928;27.662;2024-01-15T00:38:04;96973.69;;;0.60;100.00
56912;BME280;42800;53.928;27.662;2024-01-15T00:40:30;96972.31;;;1.05;100.00
56912;BME280;42800;53.928;27.662;2024-01-15T00:42:56;96977.22;;;1.18;100.00
56912;BME280;42800;53.928;27.662;2024-01-15T00:45:22;96969.81;;;1.15;100.00
56912;BME280;42800;53.928;27.662;2024-01-15T00:47:49;96976.16;;;0.84;100.00
56912;BME280;42800;53.928;27.662;2024-01-15T00:50:15;96973.88;;;0.86;100.00
56912;BME280;42800;53.928;27.662;2024-01-15T00:52:41;96968.47;;;0.86;100.00
56912;BME280;42800;53.928;27.662;2024-01-15T00:55:07;96973.09;;;0.86;100.00
56912;BME280;42800;53.928;27.662;2024-01-15T00:57:33;96971.97;;;0.87;100.00
56912;BME280;42800;53.928;27.662;2024-01-15T00:59:59;96978.41;;;0.82;100.00
56912;BME280;42800;53.928;27.662;2024-01-15T01:02:26;96965.47;;;0.72;100.00
56912;BME280;42800;53.928;27.662;2024-01-15T01:04:52;96971.31;;;0.74;100.00
56912;BME280;42800;53.928;27.662;2024-01-15T01:07:17;96967.19;;;0.61;100.00
56912;BME280;42800;53.928;27.662;2024-01-15T01:09:45;96958.72;;;0.62;100.00
56912;BME280;42800;53.928;27.662;2024-01-15T01:12:11;96962.59;;;0.81;100.00
56912;BME280;42800;53.928;27.662;2024-01-15T01:14:37;96960.38;;;0.86;100.00
56912;BME280;42800;53.928;27.662;2024-01-15T01:17:03;96961.78;;;0.61;100.00
56912;BME280;42800;53.928;27.662;2024-01-15T01:19:29;96966.44;;;0.44;100.00
56912;BME280;42800;53.928;27.662;2024-01-15T01:21:55;96959.50;;;0.43;100.00
56912;BME280;42800;53.928;27.662;2024-01-15T01:24:21;96954.44;;;0.42;100.00
56912;BME280;42800;53.928;27.662;2024-01-15T01:26:48;96947.59;;;0.29;100.00
56912;BME280;42800;53.928;27.662;2024-01-15T01:29:14;96942.69;;;0.15;100.00
56912;BME280;42800;53.928;27.662;2024-01-15T01:31:43;96925.72;;;0.50;100.00
56912;BME280;42800;53.928;27.662;2024-01-15T01:34:09;96922.06;;;0.58;100.00
56912;BME280;42800;53.928;27.662;2024-01-15T01:36:35;96930.91;;;0.58;100.00
56912;BME280;42800;53.928;27.662;2024-01-15T01:39:01;96928.34;;;0.46;100.00
56912;BME280;42800;53.928;27.662;2024-01-15T01:41:27;96926.97;;;0.36;100.00
56912;BME280;42800;53.928;27.662;2024-01-15T01:43:53;96925.41;;;0.35;100.00
56912;BME280;42800;53.928;27.662;2024-01-15T01:46:19;96923.44;;;0.32;100.00
56912;BME280;42800;53.928;27.662;2024-01-15T01:48:45;96915.44;;;0.55;100.00
56912;BME280;42800;53.928;27.662;2024-01-15T01:51:11;96916.06;;;0.13;100.00
56912;BME280;42800;53.928;27.662;2024-01-15T01:53:38;96922.03;;;0.38;100.00
56912;BME280;42800;53.928;27.662;2024-01-15T01:56:05;96923.44;;;0.32;100.00
56912;BME280;42800;53.928;27.662;2024-01-15T01:58:32;96921.13;;;0.15;100.00
56912;BME280;42800;53.928;27.662;2024-01-15T02:00:59;96914.63;;;0.35;100.00
56912;BME280;42800;53.928;27.662;2024-01-15T02:03:26;96904.78;;;0.23;100.00
56912;BME280;42800;53.928;27.662;2024-01-15T02:05:53;96921.44;;;0.29;100.00
56912;BME280;42800;53.928;27.662;2024-01-15T02:08:19;96925.47;;;0.55;100.00
56912;BME280;42800;53.928;27.662;2024-01-15T02:10:45;96929.03;;;0.43;100.00
56912;BME280;42800;53.928;27.662;2024-01-15T02:13:11;96935.34;;;0.31;100.00
56912;BME280;42800;53.928;27.662;2024-01-15T02:15:37;96939.38;;;0.21;100.00
56912;BME280;42800;53.928;27.662;2024-01-15T02:18:05;96938.13;;;0.35;100.00
56912;BME280;42800;53.928;27.662;2024-01-15T02:20:33;96939.97;;;0.31;100.00
56912;BME280;42800;53.928;27.662;2024-01-15T02:23:08;96942.28;;;0.32;100.00
56912;BME280;42800;53.928;27.662;2024-01-15T02:25:36;96945.63;;;0.61;100.00
56912;BME280;42800;53.928;27.662;2024-01-15T02:28:03;96950.63;;;0.08;100.00
56912;BME280;42800;53.928;27.662;2024-01-15T02:30:30;96939.09;;;0.27;100.00
56912;BME280;42800;53.928;27.662;2024-01-15T02:32:57;96939.38;;;0.21;100.00
56912;BME280;42800;53.928;27.662;2024-01-15T02:35:23;96934.44;;;0.23;100.00
56912;BME280;42800;53.928;27.662;2024-01-15T02:37:49;96921.22;;;0.03;100.00
56912;BME280;42800;53.928;27.662;2024-01-15T02:40:16;96925.00;;;-0.02;100.00
56912;BME280;42800;53.928;27.662;2024-01-15T02:42:42;96921.00;;;-0.08;100.00
56912;BME280;42800;53.928;27.662;2024-01-15T02:45:09;96914.72;;;0.04;100.00
56912;BME280;42800;53.928;27.662;2024-01-15T02:47:35;96911.78;;;-0.07;100.00
56912;BME280;42800;53.928;27.662;2024-01-15T02:50:01;96911.00;;;-0.08;100.00
56912;BME280;42800;53.928;27.662;2024-01-15T02:52:28;96920.44;;;0.18;100.00
56912;BME280;42800;53.928;27.662;2024-01-15T02:54:54;96926.53;;;0.15;100.00
56912;BME280;42800;53.928;27.662;2024-01-15T02:57:20;96920.75;;;0.52;100.00
56912;BME280;42800;53.928;27.662;2024-01-15T02:59:47;96925.66;;;0.11;100.00
56912;BME280;42800;53.928;27.662;2024-01-15T03:02:13;96923.38;;;0.48;100.00
56912;BME280;42800;53.928;27.662;2024-01-15T03:04:43;96925.22;;;0.09;100.00
56912;BME280;42800;53.928;27.662;2024-01-15T03:07:09;96926.00;;;0.44;100.00
56912;BME280;42800;53.928;27.662;2024-01-15T03:09:35;96931.84;;;0.11;100.00
56912;BME280;42800;53.928;27.662;2024-01-15T03:12:01;96931.06;;;0.11;100.00
56912;BME280;42800;53.928;27.662;2024-01-15T03:14:28;96924.31;;;-0.15;100.00
56912;BME280;42800;53.928;27.662;2024-01-15T03:16:54;96919.44;;;-0.09;100.00
56912;BME280;42800;53.928;27.662;2024-01-15T03:19:20;96908.31;;;-0.24;100.00
56912;BME280;42800;53.928;27.662;2024-01-15T03:21:47;96901.00;;;-0.07;100.00
56912;BME280;42800;53.928;27.662;2024-01-15T03:24:13;96902.28;;;-0.01;100.00
56912;BME280;42800;53.928;27.662;2024-01-15T03:26:39;96885.72;;;-0.03;100.00
56912;BME280;42800;53.928;27.662;2024-01-15T03:29:06;96887.22;;;-0.21;100.00
56912;BME280;42800;53.928;27.662;2024-01-15T03:31:33;96883.97;;;0.05;100.00
56912;BME280;42800;53.928;27.662;2024-01-15T03:33:59;96886.59;;;-0.15;100.00
56912;BME280;42800;53.928;27.662;2024-01-15T03:36:25;96886.34;;;-0.26;100.00
56912;BME280;42800;53.928;27.662;2024-01-15T03:38:52;96890.19;;;0.09;100.00
56912;BME280;42800;53.928;27.662;2024-01-15T03:41:18;96893.34;;;0.11;100.00
56912;BME280;42800;53.928;27.662;2024-01-15T03:43:44;96901.91;;;-0.35;100.00
56912;BME280;42800;53.928;27.662;2024-01-15T03:46:10;96892.44;;;0.07;100.00
56912;BME280;42800;53.928;27.662;2024-01-15T03:48:37;96902.44;;;0.06;100.00
56912;BME280;42800;53.928;27.662;2024-01-15T03:51:04;96901.38;;;-0.25;100.00
56912;BME280;42800;53.928;27.662;2024-01-15T03:53:30;96902.69;;;-0.50;100.00
56912;BME280;42800;53.928;27.662;2024-01-15T03:55:56;96889.81;;;-0.25;100.00
56912;BME280;42800;53.928;27.662;2024-01-15T03:58:22;96877.28;;;0.34;100.00
56912;BME280;42800;53.928;27.662;2024-01-15T04:00:48;96891.41;;;0.11;100.00
56912;BME280;42800;53.928;27.662;2024-01-15T04:03:15;96904.56;;;0.32;100.00
56912;BME280;42800;53.928;27.662;2024-01-15T04:05:41;96900.63;;;0.10;100.00
56912;BME280;42800;53.928;27.662;2024-01-15T04:08:08;96905.00;;;-0.01;100.00
56912;BME280;42800;53.928;27.662;2024-01-15T04:10:34;96897.13;;;0.10;100.00
56912;BME280;42800;53.928;27.662;2024-01-15T04:13:00;96897.13;;;0.10;100.00
56912;BME280;42800;53.928;27.662;2024-01-15T04:15:27;96902.03;;;0.04;100.00
56912;BME280;42800;53.928;27.662;2024-01-15T04:17:53;96900.50;;;-0.13;100.00
56912;BME280;42800;53.928;27.662;2024-01-15T04:20:19;96895.81;;;0.19;100.00
56912;BME280;42800;53.928;27.662;2024-01-15T04:22:46;96895.03;;;-0.16;100.00
56912;BME280;42800;53.928;27.662;2024-01-15T04:25:12;96893.75;;;0.13;100.00
56912;BME280;42800;53.928;27.662;2024-01-15T04:27:38;96890.63;;;0.11;100.00
56912;BME280;42800;53.928;27.662;2024-01-15T04:30:05;96896.34;;;-0.26;100.00
56912;BME280;42800;53.928;27.662;2024-01-15T04:32:32;96889.75;;;-0.29;100.00
56912;BME280;42800;53.928;27.662;2024-01-15T04:34:58;96887.38;;;-0.14;100.00
56912;BME280;42800;53.928;27.662;2024-01-15T04:37:24;96887.44;;;-0.11;100.00
56912;BME280;42800;53.928;27.662;2024-01-15T04:39:51;96881.06;;;-0.22;100.00
56912;BME280;42800;53.928;27.662;2024-01-15T04:42:20;96875.50;;;-0.29;100.00
56912;BME280;42800;53.928;27.662;2024-01-15T04:44:46;96871.50;;;-0.19;100.00
56912;BME280;42800;53.928;27.662;2024-01-15T04:47:13;96867.69;;;-0.34;100.00
56912;BME280;42800;53.928;27.662;2024-01-15T04:49:39;96873.50;;;-0.16;100.00
56912;BME280;42800;53.928;27.662;2024-01-15T04:52:05;96876.59;;;-0.14;100.00
56912;BME280;42800;53.928;27.662;2024-01-15T04:54:31;96876.81;;;-0.23;100.00
56912;BME280;42800;53.928;27.662;2024-01-15T04:56:58;96872.81;;;-0.29;100.00
56912;BME280;42800;53.928;27.662;2024-01-15T04:59:24;96871.28;;;-0.46;100.00
56912;BME280;42800;53.928;27.662;2024-01-15T05:01:51;96863.75;;;-0.21;100.00
56912;BME280;42800;53.928;27.662;2024-01-15T05:04:17;96861.66;;;-0.12;100.00
56912;BME280;42800;53.928;27.662;2024-01-15T05:06:43;96870.28;;;-0.22;100.00
56912;BME280;42800;53.928;27.662;2024-01-15T05:09:09;96870.38;;;-0.34;100.00
56912;BME280;42800;53.928;27.662;2024-01-15T05:11:35;96854.66;;;-0.32;100.00
56912;BME280;42800;53.928;27.662;2024-01-15T05:14:02;96842.84;;;2.07;100.00
56912;BME280;42800;53.928;27.662;2024-01-15T05:16:28;96844.69;;;3.90;100.00
56912;BME280;42800;53.928;27.662;2024-01-15T05:18:54;96166.19;;;5.63;100.00
56912;BME280;42800;53.928;27.662;2024-01-15T05:21:20;95510.31;;;6.39;100.00
56912;BME280;42800;53.928;27.662;2024-01-15T05:23:47;95708.91;;;6.75;100.00
56912;BME280;42800;53.928;27.662;2024-01-15T05:26:13;95819.88;;;7.24;100.00
56912;BME280;42800;53.928;27.662;2024-01-15T05:28:41;95894.63;;;7.23;100.00
56912;BME280;42800;53.928;27.662;2024-01-15T05:31:08;95907.63;;;7.51;100.00
56912;BME280;42800;53.928;27.662;2024-01-15T05:33:34;95938.81;;;7.50;100.00
56912;BME280;42800;53.928;27.662;2024-01-15T05:36:00;95957.31;;;7.75;100.00
56912;BME280;42800;53.928;27.662;2024-01-15T05:38:27;95996.59;;;5.57;100.00
56912;BME280;42800;53.928;27.662;2024-01-15T05:40:53;95833.09;;;5.62;100.00
56912;BME280;42800;53.928;27.662;2024-01-15T05:43:19;95841.97;;;6.13;100.00
56912;BME280;42800;53.928;27.662;2024-01-15T05:45:46;95773.84;;;4.18;100.00
56912;BME280;42800;53.928;27.662;2024-01-15T05:48:12;95579.47;;;2.86;100.00
56912;BME280;42800;53.928;27.662;2024-01-15T05:50:39;95506.41;;;2.51;100.00
56912;BME280;42800;53.928;27.662;2024-01-15T05:53:05;95545.75;;;2.56;100.00
56912;BME280;42800;53.928;27.662;2024-01-15T05:55:31;95559.63;;;2.99;100.00
56912;BME280;42800;53.928;27.662;2024-01-15T05:57:57;95566.44;;;2.77;100.00
56912;BME280;42800;53.928;27.662;2024-01-15T06:00:23;95618.56;;;2.32;100.00
56912;BME280;42800;53.928;27.662;2024-01-15T06:02:49;95679.25;;;2.21;100.00
56912;BME280;42800;53.928;27.662;2024-01-15T06:05:16;95749.56;;;2.10;100.00
56912;BME280;42800;53.928;27.662;2024-01-15T06:07:43;95825.25;;;1.99;100.00
56912;BME280;42800;53.928;27.662;2024-01-15T06:10:09;95837.63;;;1.97;100.00
56912;BME280;42800;53.928;27.662;2024-01-15T06:12:35;95894.34;;;1.72;100.00
56912;BME280;42800;53.928;27.662;2024-01-15T06:15:01;95978.47;;;1.99;100.00
56912;BME280;42800;53.928;27.662;2024-01-15T06:17:28;95961.09;;;1.75;100.00
56912;BME280;42800;53.928;27.662;2024-01-15T06:19:54;96036.38;;;1.91;100.00
56912;BME280;42800;53.928;27.662;2024-01-15T06:22:21;96020.53;;;1.78;100.00
56912;BME280;42800;53.928;27.662;2024-01-15T06:24:47;96089.94;;;1.63;100.00
56912;BME280;42800;53.928;27.662;2024-01-15T06:27:13;96114.63;;;1.65;100.00
56912;BME280;42800;53.928;27.662;2024-01-15T06:29:44;96138.94;;;1.65;100.00
56912;BME280;42800;53.928;27.662;2024-01-15T06:32:10;96142.91;;;2.00;100.00
56912;BME280;42800;53.928;27.662;2024-01-15T06:34:36;96126.63;;;1.82;100.00
56912;BME280;42800;53.928;27.662;2024-01-15T06:37:03;96109.19;;;1.51;100.00
56912;BME280;42800;53.928;27.662;2024-01-15T06:39:30;96144.03;;;1.88;100.00
56912;BME280;42800;53.928;27.662;2024-01-15T06:41:56;96164.81;;;1.70;100.00
56912;BME280;42800;53.928;27.662;2024-01-15T06:44:22;96154.06;;;1.92;100.00
56912;BME280;42800;53.928;27.662;2024-01-15T06:46:48;96095.72;;;1.69;100.00
56912;BME280;42800;53.928;27.662;2024-01-15T06:49:15;96140.91;;;1.86;100.00
56912;BME280;42800;53.928;27.662;2024-01-15T06:51:41;96124.00;;;2.04;100.00
56912;BME280;42800;53.928;27.662;2024-01-15T06:54:07;96110.84;;;1.88;100.00
56912;BME280;42800;53.928;27.662;2024-01-15T06:56:35;96066.72;;;1.45;100.00
56912;BME280;42800;53.928;27.662;2024-01-15T06:59:01;96177.19;;;1.78;100.00
56912;BME280;42800;53.928;27.662;2024-01-15T07:01:28;96151.25;;;1.67;100.00
56912;BME280;42800;53.928;27.662;2024-01-15T07:03:55;96173.91;;;1.37;100.00
56912;BME280;42800;53.928;27.662;2024-01-15T07:06:21;96189.06;;;0.97;100.00
56912;BME280;42800;53.928;27.662;2024-01-15T07:08:47;96294.31;;;1.52;100.00
56912;BME280;42800;53.928;27.662;2024-01-15T07:11:13;96260.44;;;1.62;100.00
56912;BME280;42800;53.928;27.662;2024-01-15T07:13:40;96197.84;;;1.46;100.00
56912;BME280;42800;53.928;27.662;2024-01-15T07:16:06;96245.31;;;1.50;100.00
56912;BME280;42800;53.928;27.662;2024-01-15T07:18:32;96283.28;;;1.20;100.00
56912;BME280;42800;53.928;27.662;2024-01-15T07:20:59;96332.34;;;1.33;100.00
56912;BME280;42800;53.928;27.662;2024-01-15T07:23:26;96317.53;;;1.64;100.00
56912;BME280;42800;53.928;27.662;2024-01-15T07:25:53;96272.41;;;1.13;100.00
56912;BME280;42800;53.928;27.662;2024-01-15T07:28:19;96356.00;;;1.47;100.00
56912;BME280;42800;53.928;27.662;2024-01-15T07:30:46;96362.13;;;1.44;100.00
56912;BME280;42800;53.928;27.662;2024-01-15T07:33:12;96344.72;;;1.37;100.00
56912;BME280;42800;53.928;27.662;2024-01-15T07:35:39;96333.56;;;0.98;100.00
56912;BME280;42800;53.928;27.662;2024-01-15T07:38:05;96387.56;;;1.42;100.00
56912;BME280;42800;53.928;27.662;2024-01-15T07:40:31;96355.78;;;1.73;100.00
56912;BME280;42800;53.928;27.662;2024-01-15T07:42:57;96276.50;;;1.40;100.00
56912;BME280;42800;53.928;27.662;2024-01-15T07:45:23;96283.19;;;1.61;100.00
56912;BME280;42800;53.928;27.662;2024-01-15T07:47:50;96281.97;;;1.51;100.00
56912;BME280;42800;53.928;27.662;2024-01-15T07:50:17;96295.78;;;1.46;100.00
56912;BME280;42800;53.928;27.662;2024-01-15T07:52:43;96294.34;;;1.08;100.00
56912;BME280;42800;53.928;27.662;2024-01-15T07:55:09;96392.31;;;1.60;100.00
56912;BME280;42800;53.928;27.662;2024-01-15T07:57:36;96351.91;;;1.23;100.00
56912;BME280;42800;53.928;27.662;2024-01-15T08:00:04;96389.53;;;1.46;100.00
56912;BME280;42800;53.928;27.662;2024-01-15T08:02:30;96453.69;;;1.22;100.00
56912;BME280;42800;53.928;27.662;2024-01-15T08:04:58;96449.56;;;1.32;100.00
56912;BME280;42800;53.928;27.662;2024-01-15T08:07:25;96424.91;;;1.33;100.00
56912;BME280;42800;53.928;27.662;2024-01-15T08:09:51;96416.13;;;1.06;100.00
56912;BME280;42800;53.928;27.662;2024-01-15T08:12:18;96450.66;;;1.27;100.00
56912;BME280;42800;53.928;27.662;2024-01-15T08:14:44;96483.13;;;1.34;100.00
56912;BME280;42800;53.928;27.662;2024-01-15T08:17:11;96440.78;;;1.42;100.00
56912;BME280;42800;53.928;27.662;2024-01-15T08:19:37;96378.25;;;1.36;100.00
56912;BME280;42800;53.928;27.662;2024-01-15T08:22:05;96376.59;;;1.69;100.00
56912;BME280;42800;53.928;27.662;2024-01-15T08:24:31;96329.47;;;1.63;100.00
56912;BME280;42800;53.928;27.662;2024-01-15T08:26:57;96311.97;;;1.42;100.00
56912;BME280;42800;53.928;27.662;2024-01-15T08:29:23;96320.41;;;1.34;100.00
56912;BME280;42800;53.928;27.662;2024-01-15T08:31:50;96328.91;;;1.39;100.00
56912;BME280;42800;53.928;27.662;2024-01-15T08:34:16;96334.47;;;1.57;100.00
56912;BME280;42800;53.928;27.662;2024-01-15T08:36:42;96330.81;;;1.35;100.00
56912;BME280;42800;53.928;27.662;2024-01-15T08:39:09;96338.22;;;1.46;100.00
56912;BME280;42800;53.928;27.662;2024-01-15T08:41:36;96313.97;;;1.53;100.00
56912;BME280;42800;53.928;27.662;2024-01-15T08:44:02;96307.19;;;1.22;100.00
56912;BME280;42800;53.928;27.662;2024-01-15T08:46:28;96388.63;;;1.31;100.00
56912;BME280;42800;53.928;27.662;2024-01-15T08:48:54;96356.75;;;1.44;100.00
56912;BME280;42800;53.928;27.662;2024-01-15T08:51:21;96372.34;;;1.68;100.00
56912;BME280;42800;53.928;27.662;2024-01-15T08:53:47;96297.47;;;1.61;100.00
56912;BME280;42800;53.928;27.662;2024-01-15T08:56:14;96247.38;;;1.16;100.00
56912;BME280;42800;53.928;27.662;2024-01-15T08:58:41;96264.94;;;0.96;100.00
56912;BME280;42800;53.928;27.662;2024-01-15T09:01:07;96342.63;;;0.79;100.00
56912;BME280;42800;53.928;27.662;2024-01-15T09:03:33;96408.28;;;1.31;100.00
56912;BME280;42800;53.928;27.662;2024-01-15T09:06:00;96397.47;;;1.28;100.00
56912;BME280;42800;53.928;27.662;2024-01-15T09:08:26;96380.19;;;1.39;100.00
56912;BME280;42800;53.928;27.662;2024-01-15T09:10:53;96353.34;;;1.54;100.00
56912;BME280;42800;53.928;27.662;2024-01-15T09:13:20;96385.94;;;1.31;100.00
56912;BME280;42800;53.928;27.662;2024-01-15T09:15:46;96428.97;;;1.57;100.00
56912;BME280;42800;53.928;27.662;2024-01-15T09:18:12;96420.13;;;1.60;100.00
56912;BME280;42800;53.928;27.662;2024-01-15T09:20:38;96383.88;;;1.61;100.00
56912;BME280;42800;53.928;27.662;2024-01-15T09:23:04;96358.41;;;1.62;100.00
56912;BME280;42800;53.928;27.662;2024-01-15T09:25:30;96344.69;;;1.85;100.00
56912;BME280;42800;53.928;27.662;2024-01-15T09:27:56;96332.28;;;1.77;100.00
56912;BME280;42800;53.928;27.662;2024-01-15T09:30:23;96346.13;;;1.72;100.00
56912;BME280;42800;53.928;27.662;2024-01-15T09:32:49;96299.19;;;1.95;100.00
56912;BME280;42800;53.928;27.662;2024-01-15T09:35:14;96267.13;;;1.86;100.00
56912;BME280;42800;53.928;27.662;2024-01-15T09:37:41;96229.75;;;1.29;100.00
56912;BME280;42800;53.928;27.662;2024-01-15T09:40:12;96307.19;;;1.22;100.00
56912;BME280;42800;53.928;27.662;2024-01-15T09:42:39;96348.31;;;1.52;100.00
56912;BME280;42800;53.928;27.662;2024-01-15T09:45:06;96312.41;;;1.48;100.00
56912;BME280;42800;53.928;27.662;2024-01-15T09:47:33;96309.91;;;1.77;100.00
56912;BME280;42800;53.928;27.662;2024-01-15T09:49:59;96282.44;;;1.64;100.00
56912;BME280;42800;53.928;27.662;2024-01-15T09:52:26;96225.25;;;1.48;100.00
56912;BME280;42800;53.928;27.662;2024-01-15T09:54:52;96227.97;;;1.55;100.00
56912;BME280;42800;53.928;27.662;2024-01-15T09:57:18;96222.41;;;1.26;100.00
56912;BME280;42800;53.928;27.662;2024-01-15T09:59:44;96223.41;;;1.66;100.00
56912;BME280;42800;53.928;27.662;2024-01-15T10:02:12;96193.25;;;1.53;100.00
56912;BME280;42800;53.928;27.662;2024-01-15T10:04:43;96195.19;;;1.56;100.00
56912;BME280;42800;53.928;27.662;2024-01-15T10:07:11;96185.69;;;1.84;100.00
56912;BME280;42800;53.928;27.662;2024-01-15T10:09:40;96137.31;;;1.47;100.00
56912;BME280;42800;53.928;27.662;2024-01-15T10:12:06;96158.53;;;1.48;100.00
56912;BME280;42800;53.928;27.662;2024-01-15T10:14:33;96139.22;;;1.46;100.00
56912;BME280;42800;53.928;27.662;2024-01-15T10:16:59;96103.03;;;1.58;100.00
56912;BME280;42800;53.928;27.662;2024-01-15T10:19:25;96104.50;;;1.41;100.00
56912;BME280;42800;53.928;27.662;2024-01-15T10:21:51;96080.19;;;1.37;100.00
56912;BME280;42800;53.928;27.662;2024-01-15T10:24:17;96104.06;;;1.28;100.00
56912;BME280;42800;53.928;27.662;2024-01-15T10:26:43;96136.63;;;1.68;100.00
56912;BME280;42800;53.928;27.662;2024-01-15T10:29:10;96052.41;;;1.30;100.00
56912;BME280;42800;53.928;27.662;2024-01-15T10:31:37;96156.50;;;0.72;100.00
56912;BME280;42800;53.928;27.662;2024-01-15T10:34:10;96298.19;;;0.66;100.00
56912;BME280;42800;53.928;27.662;2024-01-15T10:36:39;96445.84;;;0.46;100.00
56912;BME280;42800;53.928;27.662;2024-01-15T10:39:07;96534.38;;;0.44;100.00
56912;BME280;42800;53.928;27.662;2024-01-15T10:41:33;96591.75;;;0.44;100.00
56912;BME280;42800;53.928;27.662;2024-01-15T10:43:59;96620.75;;;0.28;100.00
56912;BME280;42800;53.928;27.662;2024-01-15T10:46:25;96654.38;;;0.57;100.00
56912;BME280;42800;53.928;27.662;2024-01-15T10:48:51;96674.72;;;0.55;100.00
56912;BME280;42800;53.928;27.662;2024-01-15T10:51:18;96672.19;;;0.42;100.00
56912;BME280;42800;53.928;27.662;2024-01-15T10:53:45;96676.13;;;0.26;100.00
56912;BME280;42800;53.928;27.662;2024-01-15T10:56:12;96676.69;;;-0.08;100.00
56912;BME280;42800;53.928;27.662;2024-01-15T10:58:39;96674.25;;;0.07;100.00
56912;BME280;42800;53.928;27.662;2024-01-15T11:01:06;96682.31;;;0.26;100.00
56912;BME280;42800;53.928;27.662;2024-01-15T11:03:32;96672.63;;;0.02;100.00
56912;BME280;42800;53.928;27.662;2024-01-15T11:05:59;96669.41;;;0.16;100.00
56912;BME280;42800;53.928;27.662;2024-01-15T11:08:25;96662.69;;;0.49;100.00
56912;BME280;42800;53.928;27.662;2024-01-15T11:10:52;96664.31;;;0.30;100.00
56912;BME280;42800;53.928;27.662;2024-01-15T11:13:21;96670.16;;;0.36;100.00
56912;BME280;42800;53.928;27.662;2024-01-15T11:16:01;96672.78;;;0.32;100.00
56912;BME280;42800;53.928;27.662;2024-01-15T11:18:28;96662.69;;;0.49;100.00
56912;BME280;42800;53.928;27.662;2024-01-15T11:21:20;96660.94;;;0.14;100.00
56912;BME280;42800;53.928;27.662;2024-01-15T11:23:47;96666.63;;;0.32;100.00
56912;BME280;42800;53.928;27.662;2024-01-15T11:26:31;96655.63;;;-0.02;100.00
56912;BME280;42800;53.928;27.662;2024-01-15T11:28:59;96650.16;;;0.14;100.00
56912;BME280;42800;53.928;27.662;2024-01-15T11:31:29;96637.22;;;-0.19;100.00
56912;BME280;42800;53.928;27.662;2024-01-15T11:33:55;96633.59;;;-0.27;100.00
56912;BME280;42800;53.928;27.662;2024-01-15T11:36:21;96618.00;;;-0.18;100.00
56912;BME280;42800;53.928;27.662;2024-01-15T11:38:47;96620.19;;;-0.04;100.00
56912;BME280;42800;53.928;27.662;2024-01-15T11:41:14;96621.69;;;-0.07;100.00
56912;BME280;42800;53.928;27.662;2024-01-15T11:43:40;96609.19;;;0.28;100.00
56912;BME280;42800;53.928;27.662;2024-01-15T11:46:11;96632.00;;;0.11;100.00
56912;BME280;42800;53.928;27.662;2024-01-15T11:48:43;96628.78;;;-0.18;100.00
56912;BME280;42800;53.928;27.662;2024-01-15T11:51:11;96618.88;;;0.32;100.00
56912;BME280;42800;53.928;27.662;2024-01-15T11:53:43;96630.09;;;0.11;100.00
56912;BME280;42800;53.928;27.662;2024-01-15T11:56:14;96639.03;;;-0.04;100.00
56912;BME280;42800;53.928;27.662;2024-01-15T11:58:40;96618.06;;;0.28;100.00
56912;BME280;42800;53.928;27.662;2024-01-15T12:01:07;96628.66;;;0.17;100.00
56912;BME280;42800;53.928;27.662;2024-01-15T12:03:33;96622.22;;;0.03;100.00
56912;BME280;42800;53.928;27.662;2024-01-15T12:06:00;96623.25;;;-0.06;100.00
56912;BME280;42800;53.928;27.662;2024-01-15T12:08:26;96619.53;;;0.03;100.00
56912;BME280;42800;53.928;27.662;2024-01-15T12:10:53;96615.56;;;-0.27;100.00
56912;BME280;42800;53.928;27.662;2024-01-15T12:13:20;96612.22;;;0.03;100.00
56912;BME280;42800;53.928;27.662;2024-01-15T12:15:47;96597.75;;;-0.31;100.00
56912;BME280;42800;53.928;27.662;2024-01-15T12:18:15;96596.63;;;-0.30;100.00
56912;BME280;42800;53.928;27.662;2024-01-15T12:20:42;96582.22;;;-0.18;100.00
56912;BME280;42800;53.928;27.662;2024-01-15T12:23:09;96589.00;;;-0.05;100.00
56912;BME280;42800;53.928;27.662;2024-01-15T12:25:36;96581.41;;;0.01;100.00
56912;BME280;42800;53.928;27.662;2024-01-15T12:28:03;96587.09;;;-0.05;100.00
56912;BME280;42800;53.928;27.662;2024-01-15T12:30:30;96582.22;;;-0.18;100.00
56912;BME280;42800;53.928;27.662;2024-01-15T12:32:57;96570.03;;;-0.12;100.00
56912;BME280;42800;53.928;27.662;2024-01-15T12:35:25;96559.03;;;-0.27;100.00
56912;BME280;42800;53.928;27.662;2024-01-15T12:37:52;96539.22;;;-0.15;100.00
56912;BME280;42800;53.928;27.662;2024-01-15T12:40:19;96544.56;;;-0.38;100.00
56912;BME280;42800;53.928;27.662;2024-01-15T12:42:45;96516.38;;;-0.44;100.00
56912;BME280;42800;53.928;27.662;2024-01-15T12:45:12;96488.00;;;-0.18;100.00